Time;durP1;ratioP1;P1;durP2;ratioP2;P2;SDS_P1;SDS_P2;PMS_P1;PMS_P2;Temp;Humidity;BMP_temperature;BMP_pressure;BME280_temperature;BME280_humidity;BME280_pressure;Samples;Min_cycle;Max_cycle;Signal;HPM_P1;HPM_P2
2022/05/10 00:05:07;;;;;;;29.70;27.80;;;;;;;17.22;100.00;101699.80;1850950;76;86111;-72
2022/05/10 00:10:56;;;;;;;29.90;27.83;;;;;;;17.23;100.00;101698.09;1797317;78;86200;-71
2022/05/10 00:16:44;;;;;;;30.23;28.40;;;;;;;17.18;100.00;101689.77;1882634;75;85635;-71
2022/05/10 00:22:29;;;;;;;32.33;30.10;;;;;;;17.15;100.00;101686.75;1945116;72;86428;-71
2022/05/10 00:28:13;;;;;;;31.93;29.83;;;;;;;16.97;100.00;101683.42;1977547;71;39814;-71
2022/05/10 00:33:59;;;;;;;33.93;31.63;;;;;;;17.09;100.00;101673.94;1846117;76;86309;-72
2022/05/10 00:39:44;;;;;;;33.37;30.97;;;;;;;16.94;100.00;101671.42;1883391;73;86345;-71
2022/05/10 00:45:34;;;;;;;32.93;30.63;;;;;;;16.94;100.00;101656.82;1927739;72;85393;-72
2022/05/10 00:51:26;;;;;;;35.43;33.03;;;;;;;16.94;100.00;101647.00;1942035;71;86791;-71
2022/05/10 01:00:25;;;;;;;35.40;32.90;;;;;;;16.81;100.00;101639.38;1940939;73;86744;-71
2022/05/10 01:03:01;;;;;;;37.00;34.50;;;;;;;16.85;100.00;101646.03;1872323;74;936998;-71
2022/05/10 01:08:53;;;;;;;40.20;37.50;;;;;;;16.84;100.00;101637.34;1873112;75;86724;-72
2022/05/10 01:14:46;;;;;;;38.50;35.93;;;;;;;16.84;100.00;101637.34;1881515;74;86240;-71
2022/05/10 01:24:15;;;;;;;39.53;36.87;;;;;;;16.84;100.00;101606.48;1961699;70;86442;-71
2022/05/10 01:26:56;;;;;;;41.27;38.57;;;;;;;16.80;100.00;101605.43;1877980;73;937045;-72
2022/05/10 01:29:29;;;;;;;41.43;38.73;;;;;;;16.71;100.00;101584.27;1917523;71;940930;-72
2022/05/10 01:34:53;;;;;;;44.63;41.43;;;;;;;16.75;100.00;101561.47;1877871;74;939070;-72
2022/05/10 01:37:26;;;;;;;43.47;40.73;;;;;;;16.73;100.00;101569.91;1897118;72;940996;-72
2022/05/10 01:46:23;;;;;;;48.60;45.57;;;;;;;16.79;100.00;101554.66;1982725;69;39592;-72
2022/05/10 01:48:56;;;;;;;45.27;42.07;;;;;;;16.75;100.00;101551.64;1928714;73;936808;-72
2022/05/10 01:55:13;;;;;;;50.13;46.83;;;;;;;16.81;100.00;101548.17;1879945;75;86209;-73
2022/05/10 02:00:59;;;;;;;49.73;46.50;;;;;;;16.83;100.00;101552.33;1881723;75;86522;-71
2022/05/10 02:10:05;;;;;;;50.07;46.87;;;;;;;16.71;100.00;101534.33;1960052;70;86072;-73
2022/05/10 02:22:28;;;;;;;51.80;48.63;;;;;;;16.62;100.00;101529.17;1913077;74;86268;-71
2022/05/10 02:28:17;;;;;;;53.57;50.27;;;;;;;16.65;100.00;101522.37;1981185;71;39639;-72
2022/05/10 02:34:02;;;;;;;57.47;53.57;;;;;;;16.61;100.00;101526.10;1827250;76;86534;-72
2022/05/10 02:39:49;;;;;;;56.87;53.33;;;;;;;16.49;100.00;101528.55;1877510;75;85960;-71
2022/05/10 02:45:35;;;;;;;58.43;54.67;;;;;;;16.51;100.00;101525.71;1807898;77;86293;-71
2022/05/10 02:51:21;;;;;;;57.50;54.00;;;;;;;16.50;100.00;101525.44;1986735;71;39810;-71
2022/05/10 02:57:06;;;;;;;54.20;50.80;;;;;;;16.51;100.00;101527.11;1789109;78;85473;-71
2022/05/10 03:02:52;;;;;;;48.77;45.83;;;;;;;16.48;100.00;101519.30;1891474;73;86037;-73
2022/05/10 03:08:36;;;;;;;40.10;37.80;;;;;;;16.44;100.00;101501.42;1876915;75;86064;-71
2022/05/10 03:14:20;;;;;;;35.33;33.13;;;;;;;16.44;100.00;101495.81;1983678;71;39761;-74
2022/05/10 03:20:07;;;;;;;34.30;32.20;;;;;;;16.43;100.00;101489.94;1851644;76;86253;-74
2022/05/10 03:25:51;;;;;;;31.33;29.43;;;;;;;16.44;100.00;101473.95;1807601;78;86293;-75
2022/05/10 03:31:35;;;;;;;29.53;27.70;;;;;;;16.42;100.00;101482.69;1808275;77;86320;-72
2022/05/10 03:37:19;;;;;;;28.63;26.93;;;;;;;16.40;100.00;101477.37;1986944;71;39602;-71
2022/05/10 03:43:03;;;;;;;27.57;26.00;;;;;;;16.32;100.00;101475.29;1880677;74;86442;-72
2022/05/10 03:48:50;;;;;;;28.20;26.50;;;;;;;16.25;100.00;101479.64;1869705;74;86093;-71
2022/05/10 03:54:34;;;;;;;26.90;25.20;;;;;;;16.29;100.00;101473.11;1866243;75;86116;-73
2022/05/10 04:00:21;;;;;;;25.90;24.30;;;;;;;16.24;100.00;101463.39;1974898;71;39530;-72
2022/05/10 04:06:06;;;;;;;25.30;23.73;;;;;;;16.22;100.00;101470.42;1832439;76;87117;-71
2022/05/10 04:11:50;;;;;;;25.80;24.30;;;;;;;16.21;100.00;101480.00;1801805;78;86074;-71
2022/05/10 04:17:35;;;;;;;26.30;24.73;;;;;;;16.17;100.00;101474.15;1801743;77;86545;-71
2022/05/10 04:23:25;;;;;;;26.87;25.27;;;;;;;16.05;100.00;101465.40;1918839;73;86595;-72
2022/05/10 04:29:09;;;;;;;27.70;25.77;;;;;;;15.99;100.00;101478.42;1891210;74;86033;-72
2022/05/10 04:34:53;;;;;;;28.67;26.97;;;;;;;15.88;100.00;101467.37;1808256;78;86597;-71
2022/05/10 04:46:41;;;;;;;31.23;29.43;;;;;;;15.88;100.00;101453.93;1852006;76;85788;-73
2022/05/10 04:52:26;;;;;;;31.80;29.70;;;;;;;15.83;100.00;101461.84;1908589;72;86301;-71
2022/05/10 04:58:09;;;;;;;33.00;31.00;;;;;;;15.68;100.00;101478.08;1983588;71;39572;-71
2022/05/10 05:03:55;;;;;;;34.53;32.23;;;;;;;15.72;100.00;101481.37;1809713;78;86183;-71
2022/05/10 05:09:40;;;;;;;37.10;34.73;;;;;;;15.68;100.00;101480.88;1873510;75;86090;-71
2022/05/10 05:15:18;;;;;;;38.33;35.93;;;;;;;15.72;100.00;101484.17;1981657;71;39660;-72
2022/05/10 05:21:03;;;;;;;40.37;37.67;;;;;;;15.70;100.00;101478.63;1961520;71;86507;-71
2022/05/10 05:26:48;;;;;;;46.83;43.80;;;;;;;15.69;100.00;101497.96;1884820;74;86831;-73
2022/05/10 05:32:36;;;;;;;53.97;50.50;;;;;;;15.72;100.00;101500.14;1870253;75;86302;-71
2022/05/10 05:38:24;;;;;;;59.70;55.70;;;;;;;15.64;100.00;101493.27;1978074;71;39520;-71
2022/05/10 05:44:07;;;;;;;64.17;59.87;;;;;;;15.55;100.00;101509.65;1809149;78;86287;-71
2022/05/10 05:49:55;;;;;;;66.60;61.93;;;;;;;15.54;100.00;101506.58;1884505;74;86687;-71
2022/05/10 05:55:42;;;;;;;65.17;60.67;;;;;;;15.45;100.00;101510.02;1899266;73;86113;-72
2022/05/10 06:04:33;;;;;;;68.17;63.40;;;;;;;15.38;100.00;101520.78;1942701;72;86321;-72
2022/05/10 06:10:18;;;;;;;69.27;64.30;;;;;;;15.21;100.00;101521.01;1983371;71;39552;-71
2022/05/10 06:16:06;;;;;;;70.17;65.17;;;;;;;15.32;100.00;101509.37;1949418;72;86070;-71
2022/05/10 06:21:52;;;;;;;68.07;62.90;;;;;;;15.16;100.00;101521.07;1809086;78;86330;-73
2022/05/10 06:27:35;;;;;;;68.60;63.57;;;;;;;15.03;100.00;101529.63;1857484;76;85602;-70
2022/05/10 06:33:21;;;;;;;69.43;64.33;;;;;;;15.23;100.00;101522.36;1985289;71;39548;-71
2022/05/10 06:39:05;;;;;;;66.17;61.27;;;;;;;15.32;100.00;101526.16;1839343;76;86369;-71
2022/05/10 06:44:49;;;;;;;68.63;63.33;;;;;;;15.38;100.00;101527.77;1883887;74;86351;-71
2022/05/10 06:50:34;;;;;;;72.33;67.03;;;;;;;15.42;100.00;101542.00;1876414;74;85562;-71
2022/05/10 06:56:19;;;;;;;69.60;64.20;;;;;;;15.52;100.00;101531.27;1971456;71;39598;-71
2022/05/10 07:02:02;;;;;;;69.03;63.50;;;;;;;15.40;100.00;101532.48;1834291;76;86470;-72
2022/05/10 07:07:47;;;;;;;67.40;62.27;;;;;;;15.44;100.00;101536.38;1895724;73;86310;-70
2022/05/10 07:13:33;;;;;;;66.40;61.00;;;;;;;15.51;100.00;101529.59;1865259;75;86294;-72
2022/05/10 07:19:18;;;;;;;66.13;61.13;;;;;;;15.58;100.00;101523.03;1938060;71;39507;-73
2022/05/10 07:25:02;;;;;;;67.57;62.47;;;;;;;15.57;100.00;101516.63;1828101;76;86163;-71
2022/05/10 07:30:51;;;;;;;66.20;61.13;;;;;;;15.70;100.00;101513.64;1872451;75;86277;-75
2022/05/10 07:36:35;;;;;;;68.77;63.33;;;;;;;15.81;100.00;101519.33;1809132;77;86467;-71
2022/05/10 07:42:20;;;;;;;68.83;63.70;;;;;;;15.79;100.00;101516.83;1978097;71;39629;-70
2022/05/10 07:48:06;;;;;;;64.30;59.40;;;;;;;15.85;100.00;101517.02;1831892;76;86275;-72
2022/05/10 07:53:51;;;;;;;66.27;61.33;;;;;;;15.92;100.00;101520.26;1828437;77;86393;-72
2022/05/10 07:59:36;;;;;;;66.33;61.00;;;;;;;16.26;100.00;101514.36;1858671;75;86416;-72
2022/05/10 08:05:22;;;;;;;64.67;59.83;;;;;;;16.15;100.00;101502.23;1979338;71;39648;-70
2022/05/10 08:11:08;;;;;;;67.00;62.20;;;;;;;16.25;100.00;101523.09;1826824;76;86298;-70
2022/05/10 08:16:52;;;;;;;67.67;62.50;;;;;;;16.15;100.00;101517.66;1808862;78;86067;-71
2022/05/10 08:22:37;;;;;;;67.93;62.90;;;;;;;16.07;100.00;101533.20;1866883;74;86396;-73
2022/05/10 08:28:30;;;;;;;65.63;61.13;;;;;;;15.94;100.00;101533.98;1861671;75;86730;-71
2022/05/10 08:34:15;;;;;;;67.87;62.87;;;;;;;16.00;100.00;101539.78;1983138;71;39642;-70
2022/05/10 08:40:01;;;;;;;62.40;58.00;;;;;;;16.06;100.00;101527.33;1826852;76;85287;-72
2022/05/10 08:45:47;;;;;;;66.73;62.13;;;;;;;16.11;100.00;101522.20;1914635;73;86328;-71
2022/05/10 08:51:33;;;;;;;64.63;60.10;;;;;;;16.05;100.00;101524.25;1857979;75;86687;-71
2022/05/10 09:00:30;;;;;;;63.80;58.70;;;;;;;16.18;100.00;101531.88;1897643;75;86502;-71
2022/05/10 09:03:02;;;;;;;63.67;58.83;;;;;;;16.15;100.00;101533.91;1839491;75;938797;-71
2022/05/10 09:08:53;;;;;;;63.73;58.97;;;;;;;16.19;100.00;101520.94;1872121;74;86545;-72
2022/05/10 09:14:42;;;;;;;62.13;57.33;;;;;;;16.16;100.00;101529.14;1809071;77;86563;-73
2022/05/10 09:20:26;;;;;;;61.07;56.37;;;;;;;16.02;100.00;101530.48;1946427;73;86304;-72
2022/05/10 09:26:37;;;;;;;61.27;56.57;;;;;;;15.97;100.00;101538.13;1867386;76;86314;-73
2022/05/10 09:38:31;;;;;;;63.37;58.17;;;;;;;16.09;100.00;101529.52;1910366;74;86743;-72
2022/05/10 09:44:26;;;;;;;66.13;60.93;;;;;;;16.22;100.00;101520.88;1983546;71;39565;-73
2022/05/10 09:50:39;;;;;;;70.17;64.83;;;;;;;16.24;100.00;101519.45;1867470;75;85994;-74
2022/05/10 09:56:34;;;;;;;63.97;59.03;;;;;;;16.41;100.00;101520.28;1918087;74;86484;-74
2022/05/10 10:02:32;;;;;;;65.27;60.03;;;;;;;16.43;100.00;101523.59;1983326;71;39647;-75
2022/05/10 10:08:41;;;;;;;65.07;60.00;;;;;;;16.36;100.00;101511.38;1945315;72;86253;-75
2022/05/10 10:14:40;;;;;;;63.07;58.17;;;;;;;16.53;100.00;101514.16;1855375;76;86532;-76
2022/05/10 10:20:43;;;;;;;68.80;63.70;;;;;;;16.59;100.00;101505.96;1859306;76;86756;-76
2022/05/10 10:26:35;;;;;;;64.57;59.47;;;;;;;16.70;100.00;101501.80;1903877;72;86434;-74
2022/05/10 10:32:35;;;;;;;66.90;61.97;;;;;;;16.68;100.00;101501.30;1908074;72;86200;-76
2022/05/10 10:38:29;;;;;;;67.40;62.27;;;;;;;16.81;100.00;101499.08;1866373;75;86629;-77
2022/05/10 10:44:20;;;;;;;65.23;60.33;;;;;;;16.72;100.00;101514.40;1936365;71;39517;-74
2022/05/10 10:50:12;;;;;;;65.93;61.23;;;;;;;16.74;100.00;101508.45;1798164;78;86298;-72
2022/05/10 10:56:06;;;;;;;63.50;58.90;;;;;;;16.74;100.00;101504.25;1894801;74;86529;-74
2022/05/10 11:02:04;;;;;;;64.67;60.10;;;;;;;16.68;100.00;101509.14;1887060;74;86313;-72
2022/05/10 11:08:02;;;;;;;62.70;58.20;;;;;;;16.81;100.00;101505.48;1840645;76;86329;-73
2022/05/10 11:10:37;;;;;;;64.17;59.67;;;;;;;16.69;100.00;101512.76;1789213;76;939014;-71
2022/05/10 11:20:13;;;;;;;69.53;64.73;;;;;;;16.84;100.00;101509.66;1873807;75;86045;-77
2022/05/10 11:26:13;;;;;;;68.40;63.50;;;;;;;16.88;100.00;101505.66;1838514;76;86149;-84
2022/05/10 11:29:21;;;;;;;64.60;60.00;;;;;;;16.86;100.00;101515.78;1791086;76;937046;-80
2022/05/10 11:35:19;;;;;;;67.40;62.57;;;;;;;16.96;100.00;101504.36;1975130;71;39684;-73
2022/05/10 11:37:53;;;;;;;62.33;57.83;;;;;;;16.83;100.00;101531.84;1912822;73;936763;-74
2022/05/10 11:48:08;;;;;;;61.40;57.00;;;;;;;16.00;100.00;101525.77;1900054;75;86337;-74
2022/05/10 11:54:09;;;;;;;68.47;63.77;;;;;;;16.05;100.00;101531.27;1732375;78;939070;-70
2022/05/10 11:59:57;;;;;;;60.27;56.00;;;;;;;16.69;100.00;101512.76;1879558;74;86339;-76
2022/05/10 12:06:18;;;;;;;59.80;54.07;;;;;;;17.89;100.00;101511.27;1841796;76;86285;-73
2022/05/10 12:12:04;;;;;;;55.60;52.30;;;;;;;18.56;100.00;101490.16;1840648;77;86844;-74
2022/05/10 12:21:20;;;;;;;46.85;44.08;;;;;;;17.81;100.00;101495.16;1900590;73;939003;-73
2022/05/10 12:27:37;;;;;;;43.37;40.97;;;;;;;18.15;100.00;101488.97;1926813;73;85429;-73
2022/05/10 12:33:51;;;;;;;44.43;42.03;;;;;;;17.79;100.00;101492.42;1846642;76;86334;-73
2022/05/10 12:39:45;;;;;;;39.83;37.30;;;;;;;17.99;100.00;101493.32;1837953;76;86345;-73
2022/05/10 12:45:36;;;;;;;36.73;34.73;;;;;;;17.83;100.00;101486.42;1863028;76;86189;-74
2022/05/10 12:51:41;;;;;;;44.77;42.47;;;;;;;18.03;100.00;101481.13;1950988;73;86147;-73
2022/05/10 13:00:40;;;;;;;35.57;33.57;;;;;;;18.29;100.00;101467.23;1956248;73;86288;-74
2022/05/10 13:03:13;;;;;;;31.03;29.33;;;;;;;18.44;100.00;101470.22;1887042;73;938908;-73
2022/05/10 13:05:58;;;;;;;32.40;30.70;;;;;;;18.50;100.00;101471.14;1902916;74;938902;-74
2022/05/10 13:08:51;;;;;;;33.63;31.67;;;;;;;18.60;100.00;101466.69;1888955;74;941801;-73
2022/05/10 13:11:23;;;;;;;35.27;33.20;;;;;;;18.80;100.00;101469.48;1874160;74;940976;-74
2022/05/10 13:13:57;;;;;;;30.03;28.20;;;;;;;18.92;100.00;101465.47;1890417;74;939029;-75
2022/05/10 13:16:28;;;;;;;30.60;29.10;;;;;;;18.73;100.00;101454.23;1912351;72;940965;-74
2022/05/10 13:18:59;;;;;;;27.33;25.83;;;;;;;18.87;100.00;101458.57;1882024;72;940991;-73
2022/05/10 13:21:31;;;;;;;29.53;27.83;;;;;;;19.00;100.00;101457.63;1890460;73;941161;-74
2022/05/10 13:24:03;;;;;;;28.63;26.97;;;;;;;19.29;100.00;101450.58;1885439;73;940941;-74
2022/05/10 13:26:35;;;;;;;27.00;25.40;;;;;;;19.30;100.00;101452.20;1901900;73;941084;-74
2022/05/10 13:29:06;;;;;;;24.65;23.07;;;;;;;19.67;100.00;101453.03;1882684;74;941048;-74
2022/05/10 13:31:38;;;;;;;21.13;19.93;;;;;;;19.73;100.00;101452.26;1922326;72;940980;-74
2022/05/10 13:34:14;;;;;;;19.87;18.50;;;;;;;19.54;100.00;101450.63;1881373;72;941008;-73
2022/05/10 13:36:49;;;;;;;19.83;18.47;;;;;;;19.31;100.00;101446.83;1903126;74;938965;-73
2022/05/10 13:42:46;;;;;;;18.80;17.50;;;;;;;18.90;100.00;101448.09;1855674;76;86452;-76
2022/05/10 13:48:39;;;;;;;16.53;15.20;;;;;;;19.57;100.00;101427.16;1799190;77;86466;-72
2022/05/10 13:54:29;;;;;;;13.97;12.93;;;;;;;19.35;100.00;101422.47;1901511;73;86009;-72
2022/05/10 14:00:28;;;;;;;12.87;11.83;;;;;;;19.76;100.00;101423.42;1930366;73;86268;-72
2022/05/10 14:06:16;;;;;;;11.60;10.70;;;;;;;19.61;100.00;101416.30;1984855;71;39685;-73
2022/05/10 14:12:07;;;;;;;16.73;15.80;;;;;;;19.53;100.00;101402.46;1859893;76;85563;-72
2022/05/10 14:17:56;;;;;;;11.70;11.00;;;;;;;20.03;100.00;101408.09;1798867;78;86483;-72
2022/05/10 14:23:43;;;;;;;11.47;10.67;;;;;;;20.05;100.00;101412.26;1881318;73;86470;-72
2022/05/10 14:29:49;;;;;;;11.73;11.07;;;;;;;20.15;100.00;101401.20;1884646;73;86157;-73
2022/05/10 14:35:50;;;;;;;11.13;10.50;;;;;;;20.40;100.00;101391.85;1883774;73;86062;-72
2022/05/10 14:41:38;;;;;;;11.90;11.13;;;;;;;20.32;100.00;101385.66;1871517;75;86586;-72
2022/05/10 14:47:38;;;;;;;11.70;10.90;;;;;;;20.50;100.00;101397.68;1868727;76;86614;-73
2022/05/10 14:53:31;;;;;;;12.10;11.20;;;;;;;20.18;100.00;101387.83;1912914;72;86571;-72
2022/05/10 14:59:51;;;;;;;11.87;11.00;;;;;;;20.23;100.00;101390.48;1809863;77;85744;-72
2022/05/10 15:05:42;;;;;;;11.67;10.87;;;;;;;19.93;100.00;101384.76;1881714;75;86241;-73
2022/05/10 15:11:29;;;;;;;12.20;11.30;;;;;;;19.96;100.00;101384.66;1948961;72;86243;-73
2022/05/10 15:17:19;;;;;;;11.83;10.93;;;;;;;20.42;100.00;101380.45;1978807;71;39608;-72
2022/05/10 15:23:04;;;;;;;12.27;11.37;;;;;;;20.27;100.00;101367.47;1825809;77;86103;-72
2022/05/10 15:28:51;;;;;;;11.17;10.53;;;;;;;20.30;100.00;101364.00;1871803;74;86332;-73
2022/05/10 15:34:43;;;;;;;12.00;11.20;;;;;;;19.98;100.00;101370.45;1799305;77;85792;-72
2022/05/10 15:40:28;;;;;;;11.53;10.60;;;;;;;20.30;100.00;101359.77;1918792;74;86159;-74
2022/05/10 15:46:16;;;;;;;11.43;10.47;;;;;;;20.00;100.00;101348.98;1978845;71;39572;-72
2022/05/10 15:52:01;;;;;;;12.87;11.67;;;;;;;20.18;100.00;101356.80;1849557;76;86367;-73
2022/05/10 15:57:44;;;;;;;12.40;11.50;;;;;;;20.06;100.00;101353.86;1888845;74;86475;-72
2022/05/10 16:03:23;;;;;;;12.03;11.00;;;;;;;20.57;100.00;101343.79;1831637;76;86219;-72
2022/05/10 16:09:07;;;;;;;12.77;11.70;;;;;;;20.38;100.00;101338.56;1802537;78;86305;-72
2022/05/10 16:14:55;;;;;;;15.97;14.87;;;;;;;20.29;100.00;101337.77;1810024;78;86180;-72
2022/05/10 16:20:38;;;;;;;12.17;11.33;;;;;;;20.33;100.00;101341.57;1871391;75;86654;-73
2022/05/10 16:32:27;;;;;;;12.70;11.83;;;;;;;20.03;100.00;101321.50;1936658;72;86198;-72
2022/05/10 16:38:22;;;;;;;12.10;11.30;;;;;;;19.99;100.00;101327.58;1980573;71;39451;-73
2022/05/10 16:44:07;;;;;;;12.13;11.20;;;;;;;20.09;100.00;101337.09;1834872;75;86300;-74
2022/05/10 16:49:52;;;;;;;12.00;10.87;;;;;;;20.23;100.00;101336.88;1801693;78;86280;-73
2022/05/10 16:55:39;;;;;;;12.37;11.40;;;;;;;20.17;100.00;101330.58;1820314;77;86317;-73
2022/05/10 17:01:22;;;;;;;11.73;10.80;;;;;;;19.98;100.00;101343.66;1981713;71;39481;-75
2022/05/10 17:07:07;;;;;;;11.80;10.80;;;;;;;19.89;100.00;101345.70;1850761;76;86316;-72
2022/05/10 17:12:52;;;;;;;12.10;11.10;;;;;;;19.79;100.00;101338.17;1806920;78;86383;-72
2022/05/10 17:18:38;;;;;;;12.03;11.10;;;;;;;19.78;100.00;101345.80;1871735;75;85910;-70
2022/05/10 17:24:26;;;;;;;12.30;11.20;;;;;;;19.80;100.00;101349.13;1940268;71;40265;-68
2022/05/10 17:30:13;;;;;;;12.00;11.00;;;;;;;19.71;100.00;101338.45;1979006;71;39616;-69
2022/05/10 17:35:58;;;;;;;11.30;10.60;;;;;;;19.63;100.00;101343.52;1837924;76;86324;-70
2022/05/10 17:41:44;;;;;;;11.53;10.53;;;;;;;19.65;100.00;101338.36;1838989;76;86198;-73
2022/05/10 17:47:28;;;;;;;11.70;10.80;;;;;;;19.63;100.00;101323.80;1911533;72;86654;-70
2022/05/10 17:53:12;;;;;;;12.10;11.10;;;;;;;19.50;100.00;101332.69;1945121;71;39730;-71
2022/05/10 17:58:55;;;;;;;106.40;18.03;;;;;;;19.43;100.00;101305.58;1886965;74;86110;-72
2022/05/10 18:04:41;;;;;;;12.03;11.13;;;;;;;19.41;100.00;101281.70;1880803;75;86623;-72
2022/05/10 18:10:26;;;;;;;11.90;10.80;;;;;;;19.32;100.00;101279.47;1906265;72;85554;-72
2022/05/10 18:16:11;;;;;;;11.77;10.87;;;;;;;19.39;100.00;101271.33;1928736;71;39708;-72
2022/05/10 18:21:55;;;;;;;12.60;11.57;;;;;;;19.33;100.00;101279.73;1882543;74;86298;-71
2022/05/10 18:27:39;;;;;;;13.33;12.03;;;;;;;19.27;100.00;101301.59;1853144;76;86393;-72
2022/05/10 18:33:25;;;;;;;14.63;13.33;;;;;;;18.93;100.00;101300.20;1913261;74;86743;-72
2022/05/10 18:39:09;;;;;;;15.13;14.10;;;;;;;18.75;100.00;101299.92;1895208;74;86259;-73
2022/05/10 18:44:55;;;;;;;15.10;13.77;;;;;;;18.39;100.00;101300.17;1795403;78;86789;-73
2022/05/10 18:50:41;;;;;;;15.60;14.20;;;;;;;18.38;100.00;101308.34;1851860;76;86233;-73
2022/05/10 18:56:26;;;;;;;16.17;14.73;;;;;;;18.31;100.00;101313.06;1949665;72;85358;-73
2022/05/10 19:02:09;;;;;;;15.80;14.43;;;;;;;18.26;100.00;101314.61;1794911;78;86561;-72
2022/05/10 19:07:54;;;;;;;16.90;15.50;;;;;;;18.19;100.00;101317.04;1810317;78;86724;-73
2022/05/10 19:14:14;;;;;;;16.63;15.27;;;;;;;18.08;100.00;101309.48;1856946;75;86449;-71
2022/05/10 19:19:57;;;;;;;17.40;15.83;;;;;;;17.96;100.00;101318.28;1893337;74;86388;-72
2022/05/10 19:25:40;;;;;;;22.70;16.63;;;;;;;17.83;100.00;101317.23;1813092;79;86248;-70
2022/05/10 19:31:23;;;;;;;16.63;15.33;;;;;;;17.79;100.00;101307.79;1949453;73;86690;-71
2022/05/10 19:37:10;;;;;;;18.10;16.53;;;;;;;17.75;100.00;101294.13;1794990;78;86579;-69
2022/05/10 19:42:55;;;;;;;19.23;17.63;;;;;;;17.64;100.00;101303.39;1840680;76;86369;-70
2022/05/10 19:48:42;;;;;;;19.70;18.03;;;;;;;17.46;100.00;101322.66;1886719;75;86196;-70
2022/05/10 19:54:30;;;;;;;22.03;20.07;;;;;;;17.40;100.00;101321.72;1936272;73;85317;-70
2022/05/10 20:00:17;;;;;;;20.83;19.13;;;;;;;17.40;100.00;101332.37;1983747;71;39626;-70
2022/05/10 20:06:06;;;;;;;21.10;19.47;;;;;;;17.22;100.00;101332.81;1839964;76;85713;-71
2022/05/10 20:12:00;;;;;;;21.80;20.03;;;;;;;17.17;100.00;101351.75;1841004;76;86304;-73
2022/05/10 20:17:49;;;;;;;21.17;19.73;;;;;;;17.05;100.00;101355.70;1822493;76;86656;-73
2022/05/10 20:23:34;;;;;;;21.73;20.03;;;;;;;17.04;100.00;101359.07;1801128;77;86270;-73
2022/05/10 20:29:19;;;;;;;23.43;21.53;;;;;;;16.95;100.00;101360.96;1945225;71;39537;-72
2022/05/10 20:35:04;;;;;;;22.43;20.70;;;;;;;16.97;100.00;101360.09;1840070;76;86347;-72
2022/05/10 20:40:49;;;;;;;24.00;22.07;;;;;;;16.85;100.00;101347.19;1870825;75;86172;-73
2022/05/10 20:46:35;;;;;;;23.30;21.83;;;;;;;16.75;100.00;101339.81;1808223;77;86185;-73
2022/05/10 20:52:21;;;;;;;26.20;24.17;;;;;;;16.65;100.00;101339.20;1986484;71;39695;-73
2022/05/10 20:58:03;;;;;;;25.70;23.70;;;;;;;16.58;100.00;101331.22;1885631;74;86180;-71
2022/05/10 21:03:48;;;;;;;28.10;25.60;;;;;;;16.61;100.00;101319.94;1898510;74;86614;-71
2022/05/10 21:09:33;;;;;;;29.70;27.70;;;;;;;16.59;100.00;101325.88;1800713;77;86295;-70
2022/05/10 21:15:17;;;;;;;31.13;29.03;;;;;;;16.49;100.00;101320.45;1939364;71;39614;-70
2022/05/10 21:21:01;;;;;;;32.37;29.70;;;;;;;16.56;100.00;101315.84;1926556;73;86206;-70
2022/05/10 21:32:53;;;;;;;33.60;31.13;;;;;;;16.45;100.00;101308.20;1873903;74;85347;-70
2022/05/10 21:38:40;;;;;;;37.97;35.17;;;;;;;16.25;100.00;101301.06;1805270;77;86049;-72
2022/05/10 21:44:24;;;;;;;40.27;37.33;;;;;;;16.21;100.00;101291.63;1918381;73;86158;-72
2022/05/10 21:50:11;;;;;;;42.17;38.97;;;;;;;16.15;100.00;101300.43;1795436;78;85563;-72
2022/05/10 21:55:56;;;;;;;48.10;44.70;;;;;;;16.07;100.00;101287.98;1906095;74;86177;-72
2022/05/10 22:01:38;;;;;;;50.43;46.90;;;;;;;15.97;100.00;101271.36;1874516;75;86389;-72
2022/05/10 22:07:23;;;;;;;52.37;48.57;;;;;;;15.89;100.00;101274.33;1819607;78;86252;-72
2022/05/10 22:13:08;;;;;;;57.00;53.10;;;;;;;15.86;100.00;101267.95;1840137;76;85991;-72
2022/05/10 22:18:52;;;;;;;59.33;55.20;;;;;;;15.64;100.00;101259.42;1808030;78;86050;-72
2022/05/10 22:24:37;;;;;;;62.80;58.10;;;;;;;15.48;100.00;101250.45;1863316;75;85603;-72
2022/05/10 22:30:22;;;;;;;60.77;56.63;;;;;;;15.56;100.00;101246.70;1924045;71;39617;-73
2022/05/10 22:36:08;;;;;;;64.83;60.37;;;;;;;15.49;100.00;101243.69;1838466;76;86069;-72
2022/05/10 22:41:52;;;;;;;65.73;60.67;;;;;;;15.44;100.00;101245.78;1809282;78;86227;-72
2022/05/10 22:47:36;;;;;;;66.47;61.37;;;;;;;15.41;100.00;101236.00;1808645;77;86266;-72
2022/05/10 22:53:23;;;;;;;66.03;61.33;;;;;;;15.32;100.00;101236.45;1982510;72;86109;-70
2022/05/10 22:59:05;;;;;;;67.97;63.00;;;;;;;15.29;100.00;101234.28;1856081;76;86363;-71
2022/05/10 23:04:52;;;;;;;65.50;61.10;;;;;;;15.25;100.00;101221.20;1804910;78;86213;-72
2022/05/10 23:10:41;;;;;;;65.67;60.97;;;;;;;15.10;100.00;101216.73;1940052;73;86432;-72
2022/05/10 23:16:25;;;;;;;64.73;60.07;;;;;;;15.11;100.00;101218.93;1926259;73;86009;-71
2022/05/10 23:22:11;;;;;;;63.37;59.17;;;;;;;15.13;100.00;101218.90;1810238;78;86338;-72
2022/05/10 23:31:10;;;;;;;64.73;60.03;;;;;;;15.15;100.00;101217.17;1987017;71;39618;-72
2022/05/10 23:36:56;;;;;;;65.87;61.60;;;;;;;15.08;100.00;101204.16;1808252;78;86642;-72
2022/05/10 23:48:43;;;;;;;65.77;61.43;;;;;;;14.96;100.00;101199.89;1876652;75;86421;-72
2022/05/10 23:54:30;;;;;;;65.30;60.87;;;;;;;14.91;100.00;101197.74;1923809;72;86322;-72
